Time;durP1;ratioP1;P1;durP2;ratioP2;P2;SDS_P1;SDS_P2;PMS_P1;PMS_P2;Temp;Humidity;BMP_temperature;BMP_pressure;BME280_temperature;BME280_humidity;BME280_pressure;Samples;Min_cycle;Max_cycle;Signal;HPM_P1;HPM_P2
2023/10/30 00:00:08;;;;;;;9.40;2.40;;;;;;;9.38;100.00;99814.16;4886492;29;20065;-82
2023/10/30 00:02:35;;;;;;;17.65;2.58;;;;;;;9.39;100.00;99808.81;4879511;29;20548;-82
2023/10/30 00:05:00;;;;;;;13.02;2.72;;;;;;;9.42;100.00;99810.47;4888735;29;20049;-82
2023/10/30 00:07:27;;;;;;;12.95;2.72;;;;;;;9.44;100.00;99822.72;4860571;29;20393;-82
2023/10/30 00:09:53;;;;;;;9.25;2.45;;;;;;;9.46;100.00;99823.53;4863857;29;20044;-82
2023/10/30 00:12:19;;;;;;;10.60;2.22;;;;;;;9.48;100.00;99823.50;4878703;29;20037;-82
2023/10/30 00:14:44;;;;;;;12.65;2.63;;;;;;;9.50;100.00;99824.31;4878905;29;20068;-83
2023/10/30 00:17:09;;;;;;;9.40;2.17;;;;;;;9.54;100.00;99835.63;4863226;29;20119;-82
2023/10/30 00:19:36;;;;;;;10.02;2.05;;;;;;;9.54;100.00;99833.84;4880786;29;20408;-83
2023/10/30 00:22:01;;;;;;;10.80;2.80;;;;;;;9.55;100.00;99840.03;4881690;29;20041;-83
2023/10/30 00:24:29;;;;;;;15.35;2.83;;;;;;;9.55;100.00;99838.25;4898319;29;20124;-83
2023/10/30 00:26:54;;;;;;;13.43;2.25;;;;;;;9.54;100.00;99841.78;4881562;29;20104;-82
2023/10/30 00:29:20;;;;;;;11.75;2.50;;;;;;;9.57;100.00;99854.91;4881661;29;20048;-83
2023/10/30 00:31:45;;;;;;;14.23;3.10;;;;;;;9.64;100.00;99855.56;4865264;29;20226;-83
2023/10/30 00:34:12;;;;;;;18.33;2.30;;;;;;;9.59;100.00;99850.41;4861971;29;20053;-83
2023/10/30 00:36:38;;;;;;;11.68;2.92;;;;;;;9.57;100.00;99857.56;4847471;29;20107;-83
2023/10/30 00:39:03;;;;;;;14.15;3.00;;;;;;;9.57;100.00;99857.56;4880262;29;20029;-83
2023/10/30 00:41:29;;;;;;;11.20;2.50;;;;;;;9.57;100.00;99859.31;4879044;29;20033;-82
2023/10/30 00:43:54;;;;;;;13.75;2.85;;;;;;;9.58;100.00;99867.19;4850860;29;20037;-83
2023/10/30 00:46:20;;;;;;;15.88;2.47;;;;;;;9.58;100.00;99859.28;4892560;29;20404;-83
2023/10/30 00:48:45;;;;;;;15.95;2.67;;;;;;;9.60;100.00;99861.88;4882775;29;20105;-83
2023/10/30 00:51:10;;;;;;;18.98;3.05;;;;;;;9.60;100.00;99869.81;4862660;29;20052;-83
2023/10/30 00:53:38;;;;;;;12.27;2.40;;;;;;;9.58;100.00;99871.63;4864169;29;20437;-83
2023/10/30 00:56:07;;;;;;;9.00;2.33;;;;;;;9.60;100.00;99878.59;4890825;29;20033;-83
2023/10/30 00:58:33;;;;;;;11.07;2.25;;;;;;;9.59;100.00;99886.56;4862286;29;20520;-83
2023/10/30 01:00:59;;;;;;;15.02;3.53;;;;;;;9.59;100.00;99898.00;4875210;29;20485;-83
2023/10/30 01:03:27;;;;;;;7.70;2.08;;;;;;;9.59;100.00;99886.56;4862682;29;20037;-83
2023/10/30 01:05:59;;;;;;;11.63;2.72;;;;;;;9.63;100.00;99898.78;4879882;29;20049;-83
2023/10/30 01:08:26;;;;;;;10.93;2.85;;;;;;;9.62;100.00;99903.19;4877490;29;20108;-82
2023/10/30 01:10:52;;;;;;;12.88;2.60;;;;;;;9.61;100.00;99906.75;4869397;29;20037;-83
2023/10/30 01:13:18;;;;;;;11.95;2.72;;;;;;;9.61;100.00;99905.88;4862668;29;20488;-83
2023/10/30 01:15:43;;;;;;;10.43;2.58;;;;;;;9.61;100.00;99904.09;4879687;29;20188;-83
2023/10/30 01:18:09;;;;;;;12.43;2.50;;;;;;;9.61;100.00;99898.81;4879738;29;20072;-82
2023/10/30 01:20:39;;;;;;;12.18;2.58;;;;;;;9.65;100.00;99918.09;4879893;29;20083;-83
2023/10/30 01:23:04;;;;;;;11.77;2.67;;;;;;;9.66;100.00;99914.53;4879192;29;20040;-83
2023/10/30 01:25:30;;;;;;;18.25;3.40;;;;;;;9.64;100.00;99922.53;4862861;29;20477;-83
2023/10/30 01:27:55;;;;;;;17.85;3.22;;;;;;;9.62;100.00;99921.72;4879473;29;20040;-83
2023/10/30 01:30:21;;;;;;;13.85;3.00;;;;;;;9.60;100.00;99914.75;4862542;29;20082;-83
2023/10/30 01:32:46;;;;;;;16.90;2.78;;;;;;;9.62;100.00;99915.56;4862647;29;20064;-83
2023/10/30 01:35:12;;;;;;;13.85;2.80;;;;;;;9.64;100.00;99917.25;4862518;29;20045;-83
2023/10/30 01:37:37;;;;;;;13.85;2.60;;;;;;;9.63;100.00;99912.84;4879267;29;20161;-83
2023/10/30 01:40:03;;;;;;;15.13;2.75;;;;;;;9.69;100.00;99911.78;4879019;29;20052;-83
2023/10/30 01:42:29;;;;;;;8.48;2.35;;;;;;;9.68;100.00;99913.56;4879124;29;20151;-84
2023/10/30 01:44:56;;;;;;;8.32;2.80;;;;;;;9.69;100.00;99910.03;4875007;29;20128;-83
2023/10/30 01:47:23;;;;;;;13.05;2.50;;;;;;;9.71;100.00;99906.44;4884564;29;20056;-83
2023/10/30 01:49:50;;;;;;;11.23;2.15;;;;;;;9.71;100.00;99915.22;4886712;29;20039;-83
2023/10/30 01:52:17;;;;;;;9.43;2.17;;;;;;;9.71;100.00;99912.59;4895659;29;20140;-83
2023/10/30 01:54:45;;;;;;;13.80;2.80;;;;;;;9.70;100.00;99913.53;4897369;29;20100;-83
2023/10/30 01:57:11;;;;;;;11.30;2.40;;;;;;;9.71;100.00;99917.88;4880226;29;20040;-83
2023/10/30 01:59:37;;;;;;;13.23;3.05;;;;;;;9.71;100.00;99909.09;4880685;29;20049;-83
2023/10/30 02:02:02;;;;;;;12.73;2.10;;;;;;;9.71;100.00;99911.72;4874845;29;20144;-83
2023/10/30 02:04:28;;;;;;;13.02;2.40;;;;;;;9.72;100.00;99918.72;4861701;29;20048;-83
2023/10/30 02:06:54;;;;;;;11.63;2.58;;;;;;;9.72;100.00;99919.63;4862359;29;20032;-84
2023/10/30 02:09:19;;;;;;;11.57;2.33;;;;;;;9.73;100.00;99921.34;4859064;29;20409;-83
2023/10/30 02:11:45;;;;;;;15.60;3.75;;;;;;;9.75;100.00;99923.94;4878555;29;20032;-83
2023/10/30 02:14:10;;;;;;;11.55;2.67;;;;;;;9.75;100.00;99914.22;4878584;29;20493;-82
2023/10/30 02:16:37;;;;;;;11.90;2.38;;;;;;;9.76;100.00;99921.22;4846846;29;20033;-83
2023/10/30 02:19:03;;;;;;;13.13;2.67;;;;;;;9.73;100.00;99913.41;4861641;29;20544;-83
2023/10/30 02:21:29;;;;;;;15.27;2.65;;;;;;;9.77;100.00;99912.41;4843404;29;20149;-83
2023/10/30 02:23:54;;;;;;;9.95;2.17;;;;;;;9.81;100.00;99916.66;4873857;29;20128;-83
2023/10/30 02:26:20;;;;;;;10.57;2.60;;;;;;;9.82;100.00;99921.03;4878618;29;20040;-83
2023/10/30 02:28:45;;;;;;;13.20;3.85;;;;;;;9.83;100.00;99921.91;4875408;29;20717;-83
2023/10/30 02:31:11;;;;;;;8.88;2.08;;;;;;;9.75;100.00;99900.16;4875053;29;20045;-83
2023/10/30 02:33:36;;;;;;;18.00;2.50;;;;;;;9.83;100.00;99916.63;4846342;29;20388;-83
2023/10/30 02:36:02;;;;;;;12.48;2.33;;;;;;;9.83;100.00;99914.81;4861299;29;20393;-83
2023/10/30 02:38:28;;;;;;;15.35;2.47;;;;;;;9.83;100.00;99906.91;4878629;29;20459;-83
2023/10/30 02:40:53;;;;;;;9.75;2.50;;;;;;;9.83;100.00;99911.31;4874346;29;20498;-83
2023/10/30 02:43:19;;;;;;;10.85;2.10;;;;;;;9.81;100.00;99911.38;4877680;29;20041;-83
2023/10/30 02:45:44;;;;;;;14.75;2.83;;;;;;;9.85;100.00;99909.50;4872797;29;20104;-83
2023/10/30 02:48:09;;;;;;;8.45;1.85;;;;;;;9.81;100.00;99914.00;4882554;29;20037;-83
2023/10/30 02:50:35;;;;;;;12.93;2.15;;;;;;;9.78;100.00;99906.19;4885230;29;20349;-82
2023/10/30 02:53:00;;;;;;;9.43;2.42;;;;;;;9.80;100.00;99909.66;4893352;29;20065;-82
2023/10/30 02:55:26;;;;;;;14.02;2.40;;;;;;;9.88;100.00;99904.09;4888039;29;20130;-83
2023/10/30 02:57:51;;;;;;;8.70;2.20;;;;;;;9.86;100.00;99903.28;4861626;29;20598;-83
2023/10/30 03:00:17;;;;;;;13.23;2.92;;;;;;;9.84;100.00;99911.28;4885003;29;20091;-83
2023/10/30 03:02:43;;;;;;;10.40;2.30;;;;;;;9.84;100.00;99908.63;4896320;29;20055;-83
2023/10/30 03:05:08;;;;;;;13.43;2.50;;;;;;;9.82;100.00;99899.03;4880185;29;20119;-82
2023/10/30 03:07:34;;;;;;;17.73;2.50;;;;;;;9.83;100.00;99912.19;4865292;29;20089;-83
2023/10/30 03:09:59;;;;;;;12.18;2.38;;;;;;;9.83;100.00;99913.97;4881444;29;20041;-80
2023/10/30 03:12:25;;;;;;;12.60;2.50;;;;;;;9.81;100.00;99913.16;4868913;29;20073;-80
2023/10/30 03:14:51;;;;;;;11.63;2.28;;;;;;;9.79;100.00;99910.56;4882211;29;20040;-80
2023/10/30 03:17:16;;;;;;;13.50;2.47;;;;;;;9.78;100.00;99918.56;4881487;29;20044;-81
2023/10/30 03:19:41;;;;;;;11.05;2.83;;;;;;;9.77;100.00;99925.63;4865245;29;20037;-80
2023/10/30 03:22:07;;;;;;;11.82;2.08;;;;;;;9.79;100.00;99929.09;4864464;29;20041;-81
2023/10/30 03:24:33;;;;;;;13.85;2.25;;;;;;;9.77;100.00;99933.56;4881492;29;20052;-81
2023/10/30 03:26:59;;;;;;;12.43;2.60;;;;;;;9.77;100.00;99936.19;4865778;29;20052;-82
2023/10/30 03:29:25;;;;;;;11.80;2.40;;;;;;;9.77;100.00;99937.97;4876042;29;20443;-80
2023/10/30 03:31:54;;;;;;;14.40;2.70;;;;;;;9.78;100.00;99932.63;4864650;29;20065;-81
2023/10/30 03:34:20;;;;;;;14.23;2.50;;;;;;;9.78;100.00;99935.28;4854274;29;20036;-80
2023/10/30 03:36:45;;;;;;;8.80;2.40;;;;;;;9.75;100.00;99924.81;4881231;29;20132;-81
2023/10/30 03:39:11;;;;;;;11.85;2.20;;;;;;;9.77;100.00;99922.97;4881061;29;20033;-81
2023/10/30 03:41:37;;;;;;;9.65;2.38;;;;;;;9.75;100.00;99922.16;4849027;29;20397;-81
2023/10/30 03:44:03;;;;;;;7.10;2.33;;;;;;;9.74;100.00;99923.06;4864225;29;20523;-81
2023/10/30 03:46:30;;;;;;;14.57;2.65;;;;;;;9.73;100.00;99916.06;4864249;29;20465;-81
2023/10/30 03:48:56;;;;;;;12.60;2.95;;;;;;;9.77;100.00;99928.28;4864151;29;20112;-80
2023/10/30 03:51:25;;;;;;;11.18;2.30;;;;;;;9.76;100.00;99921.22;4880747;29;20061;-81
2023/10/30 03:53:50;;;;;;;11.60;2.30;;;;;;;9.73;100.00;99916.06;4880565;29;20465;-81
2023/10/30 03:56:16;;;;;;;10.27;1.92;;;;;;;9.71;100.00;99917.88;4894357;29;20103;-81
2023/10/30 03:58:41;;;;;;;11.70;2.85;;;;;;;9.70;100.00;99921.44;4864623;29;20176;-81
2023/10/30 04:01:07;;;;;;;7.60;1.98;;;;;;;9.68;100.00;99929.41;4880927;29;20040;-81
2023/10/30 04:03:33;;;;;;;8.45;2.10;;;;;;;9.65;100.00;99926.88;4873376;29;20044;-81
2023/10/30 04:06:02;;;;;;;7.82;2.92;;;;;;;9.62;100.00;99932.28;4869893;29;20041;-81
2023/10/30 04:08:28;;;;;;;11.88;3.03;;;;;;;9.63;100.00;99922.56;4899540;29;20100;-80
2023/10/30 04:10:53;;;;;;;10.30;2.15;;;;;;;9.59;100.00;99924.44;4866767;29;20437;-80
2023/10/30 04:13:19;;;;;;;9.98;2.40;;;;;;;9.57;100.00;99920.09;4881058;29;20041;-81
2023/10/30 04:15:44;;;;;;;10.55;2.50;;;;;;;9.56;100.00;99918.38;4880404;29;20037;-81
2023/10/30 04:18:10;;;;;;;12.02;2.47;;;;;;;9.54;100.00;99929.00;4864186;29;20049;-81
2023/10/30 04:20:35;;;;;;;12.70;2.42;;;;;;;9.51;100.00;99926.47;4864252;29;20045;-80
2023/10/30 04:23:01;;;;;;;13.48;2.42;;;;;;;9.49;100.00;99920.34;4880908;29;20044;-81
2023/10/30 04:25:26;;;;;;;12.48;2.33;;;;;;;9.45;100.00;99922.25;4880524;29;20037;-81
2023/10/30 04:27:53;;;;;;;10.68;1.95;;;;;;;9.44;100.00;99919.63;4868784;29;20051;-81
2023/10/30 04:30:19;;;;;;;8.40;2.22;;;;;;;9.43;100.00;99916.13;4864085;29;20144;-81
2023/10/30 04:32:45;;;;;;;9.98;1.98;;;;;;;9.39;100.00;99918.91;4863997;29;20048;-81
2023/10/30 04:35:10;;;;;;;11.23;2.03;;;;;;;9.39;100.00;99924.22;4880754;29;20389;-81
2023/10/30 04:37:36;;;;;;;10.15;2.55;;;;;;;9.41;100.00;99925.88;4848710;29;20493;-81
2023/10/30 04:40:02;;;;;;;11.05;2.50;;;;;;;9.42;100.00;99925.00;4880371;29;20037;-81
2023/10/30 04:42:28;;;;;;;10.02;2.20;;;;;;;9.42;100.00;99926.75;4880814;29;20369;-81
2023/10/30 04:44:55;;;;;;;10.88;2.53;;;;;;;9.41;100.00;99930.31;4863833;29;21714;-81
2023/10/30 04:47:21;;;;;;;11.80;2.78;;;;;;;9.39;100.00;99934.78;4880747;29;20069;-81
2023/10/30 04:49:46;;;;;;;10.80;2.28;;;;;;;9.38;100.00;99938.34;4880355;29;20073;-81
2023/10/30 04:52:12;;;;;;;10.57;2.45;;;;;;;9.40;100.00;99936.53;4881814;29;20041;-81
2023/10/30 04:54:37;;;;;;;18.65;2.90;;;;;;;9.37;100.00;99932.19;4863765;29;20529;-81
2023/10/30 04:57:03;;;;;;;18.73;2.95;;;;;;;9.40;100.00;99934.75;4863399;29;20041;-81
2023/10/30 04:59:29;;;;;;;15.68;2.45;;;;;;;9.41;100.00;99941.75;4848314;29;20160;-81
2023/10/30 05:01:54;;;;;;;12.63;2.72;;;;;;;9.43;100.00;99933.78;4880030;29;20234;-81
2023/10/30 05:04:20;;;;;;;15.05;2.95;;;;;;;9.42;100.00;99924.09;4880167;29;20418;-81
2023/10/30 05:06:46;;;;;;;13.75;2.80;;;;;;;9.38;100.00;99915.41;4880547;29;20071;-80
2023/10/30 05:09:12;;;;;;;13.35;2.63;;;;;;;9.36;100.00;99917.25;4875732;29;20084;-81
2023/10/30 05:11:39;;;;;;;11.32;2.53;;;;;;;9.38;100.00;99920.72;4863285;29;20442;-81
2023/10/30 05:14:05;;;;;;;13.73;2.33;;;;;;;9.39;100.00;99921.56;4848035;29;20025;-81
2023/10/30 05:16:31;;;;;;;15.13;3.22;;;;;;;9.38;100.00;99915.41;4879847;29;20053;-81
2023/10/30 05:18:57;;;;;;;11.38;2.50;;;;;;;9.37;100.00;99921.63;4879779;29;20044;-81
2023/10/30 05:21:23;;;;;;;7.05;2.00;;;;;;;9.32;100.00;99925.31;4879115;29;20373;-81
2023/10/30 05:23:49;;;;;;;10.18;2.65;;;;;;;9.33;100.00;99927.91;4862430;29;20049;-81
2023/10/30 05:26:15;;;;;;;13.80;2.63;;;;;;;9.31;100.00;99913.03;4861677;29;20127;-81
2023/10/30 05:28:41;;;;;;;13.75;2.97;;;;;;;9.26;100.00;99914.03;4878690;29;20473;-81
2023/10/30 05:31:07;;;;;;;12.18;2.17;;;;;;;9.30;100.00;99916.56;4873562;29;20144;-81
2023/10/30 05:33:34;;;;;;;17.20;2.90;;;;;;;9.33;100.00;99914.69;4860261;29;20033;-82
2023/10/30 05:36:00;;;;;;;13.23;2.20;;;;;;;9.32;100.00;99902.41;4883731;29;20036;-81
2023/10/30 05:38:26;;;;;;;11.57;2.55;;;;;;;9.30;100.00;99898.06;4885823;29;20040;-81
2023/10/30 05:40:51;;;;;;;7.72;2.00;;;;;;;9.31;100.00;99908.59;4881913;29;20062;-81
2023/10/30 05:43:17;;;;;;;15.75;2.83;;;;;;;9.30;100.00;99914.81;4877592;29;20067;-82
2023/10/30 05:45:42;;;;;;;14.43;2.58;;;;;;;9.27;100.00;99912.25;4881945;29;20045;-82
2023/10/30 05:48:07;;;;;;;18.27;2.45;;;;;;;9.27;100.00;99914.88;4884986;29;20405;-81
2023/10/30 05:50:33;;;;;;;9.73;2.55;;;;;;;9.28;100.00;99926.34;4867273;29;20369;-81
2023/10/30 05:52:58;;;;;;;9.40;2.30;;;;;;;9.26;100.00;99921.94;4882801;29;20511;-81
2023/10/30 05:55:24;;;;;;;15.23;2.90;;;;;;;9.22;100.00;99908.88;4896830;29;20056;-81
2023/10/30 05:57:50;;;;;;;17.98;3.30;;;;;;;9.23;100.00;99908.84;4866735;29;20055;-81
2023/10/30 06:00:15;;;;;;;7.55;2.17;;;;;;;9.20;100.00;99916.00;4895249;29;20044;-81
2023/10/30 06:02:41;;;;;;;12.80;1.95;;;;;;;9.16;100.00;99911.72;4885718;29;20508;-81
2023/10/30 06:05:08;;;;;;;12.48;2.90;;;;;;;9.14;100.00;99909.13;4861503;29;20045;-81
2023/10/30 06:07:34;;;;;;;13.02;2.15;;;;;;;9.12;100.00;99913.56;4870586;29;20045;-81
2023/10/30 06:10:01;;;;;;;14.43;2.55;;;;;;;9.08;100.00;99925.16;4880289;29;20045;-81
2023/10/30 06:12:26;;;;;;;8.65;1.92;;;;;;;9.06;100.00;99923.50;4879846;29;20044;-81
2023/10/30 06:14:51;;;;;;;13.75;2.33;;;;;;;9.03;100.00;99922.66;4878119;29;20096;-81
2023/10/30 06:17:17;;;;;;;9.77;2.10;;;;;;;9.00;100.00;99919.22;4877812;29;20041;-81
2023/10/30 06:19:42;;;;;;;7.90;2.40;;;;;;;8.94;100.00;99917.66;4846188;29;20033;-81
2023/10/30 06:22:08;;;;;;;9.80;2.03;;;;;;;8.93;100.00;99921.22;4861166;29;20465;-81
2023/10/30 06:24:33;;;;;;;14.65;2.70;;;;;;;8.91;100.00;99930.09;4861313;29;20076;-81
2023/10/30 06:26:59;;;;;;;13.27;2.40;;;;;;;8.90;100.00;99938.91;4860886;29;20029;-81
2023/10/30 06:29:24;;;;;;;15.15;2.28;;;;;;;8.85;100.00;99943.47;4878308;29;20452;-81
2023/10/30 06:31:50;;;;;;;12.90;2.28;;;;;;;8.84;100.00;99953.16;4861258;29;20045;-81
2023/10/30 06:34:15;;;;;;;12.07;2.47;;;;;;;8.82;100.00;99950.56;4876607;29;20516;-81
2023/10/30 06:36:41;;;;;;;9.90;2.25;;;;;;;8.80;100.00;99957.69;4883136;29;20064;-81
2023/10/30 06:39:06;;;;;;;11.88;2.30;;;;;;;8.79;100.00;99953.28;4882829;29;20408;-81
2023/10/30 06:41:32;;;;;;;16.77;3.50;;;;;;;8.76;100.00;99953.38;4883041;29;20037;-81
2023/10/30 06:43:57;;;;;;;12.95;2.25;;;;;;;8.76;100.00;99953.38;4881908;29;20037;-81
2023/10/30 06:46:23;;;;;;;10.88;2.40;;;;;;;8.76;100.00;99966.59;4881625;29;20037;-81
2023/10/30 06:48:48;;;;;;;9.63;2.22;;;;;;;8.75;100.00;99969.25;4890850;29;20341;-81
2023/10/30 06:51:14;;;;;;;10.93;2.15;;;;;;;8.73;100.00;99966.69;4864807;29;20044;-81
2023/10/30 06:53:39;;;;;;;10.23;2.40;;;;;;;8.72;100.00;99959.66;4890680;29;20048;-81
2023/10/30 06:56:06;;;;;;;15.70;2.47;;;;;;;8.72;100.00;99962.28;4881743;29;20461;-81
2023/10/30 06:58:31;;;;;;;8.90;2.60;;;;;;;8.73;100.00;99965.78;4873907;29;20533;-81
2023/10/30 07:01:04;;;;;;;9.75;2.00;;;;;;;8.75;100.00;99972.78;4871791;29;20127;-81
2023/10/30 07:03:30;;;;;;;11.57;2.40;;;;;;;8.76;100.00;99974.50;4886030;29;20045;-81
2023/10/30 07:05:56;;;;;;;8.55;2.20;;;;;;;8.77;100.00;99964.81;4868954;29;20044;-81
2023/10/30 07:08:22;;;;;;;17.25;4.70;;;;;;;8.79;100.00;99966.47;4864971;29;20139;-80
2023/10/30 07:10:47;;;;;;;13.65;2.25;;;;;;;8.79;100.00;99961.22;4881100;29;20144;-81
2023/10/30 07:13:13;;;;;;;9.82;2.15;;;;;;;8.82;100.00;99958.47;4864319;29;20041;-81
2023/10/30 07:15:38;;;;;;;9.95;3.00;;;;;;;8.87;100.00;99968.91;4881219;29;20041;-81
2023/10/30 07:18:04;;;;;;;10.88;2.25;;;;;;;8.90;100.00;99965.31;4893035;29;20049;-81
2023/10/30 07:20:29;;;;;;;10.18;2.38;;;;;;;8.93;100.00;99968.75;4895345;29;20047;-81
2023/10/30 07:22:55;;;;;;;13.75;2.45;;;;;;;8.96;100.00;99975.72;4881262;29;20048;-81
2023/10/30 07:25:20;;;;;;;13.10;2.13;;;;;;;9.01;100.00;99973.78;4880851;29;20096;-81
2023/10/30 07:27:46;;;;;;;14.63;3.10;;;;;;;9.06;100.00;99971.88;4879704;29;20052;-81
2023/10/30 07:30:12;;;;;;;13.75;2.60;;;;;;;9.09;100.00;99974.44;4849060;29;20084;-81
2023/10/30 07:32:37;;;;;;;13.27;2.58;;;;;;;9.15;100.00;99979.53;4890464;29;20040;-79
2023/10/30 07:35:05;;;;;;;9.25;2.30;;;;;;;9.19;100.00;99983.81;4880797;29;20452;-80
2023/10/30 07:37:30;;;;;;;9.13;2.80;;;;;;;9.22;100.00;99989.03;4880324;29;20041;-80
2023/10/30 07:39:55;;;;;;;11.27;2.30;;;;;;;9.24;100.00;99995.09;4863845;29;20067;-79
2023/10/30 07:42:21;;;;;;;14.18;2.83;;;;;;;9.30;100.00;100003.75;4881345;29;20103;-80
2023/10/30 07:44:46;;;;;;;12.20;2.97;;;;;;;9.34;100.00;100008.91;4881924;29;20136;-80
2023/10/30 07:47:12;;;;;;;11.88;2.58;;;;;;;9.40;100.00;100021.09;4881730;29;20057;-80
2023/10/30 07:49:37;;;;;;;15.63;2.35;;;;;;;9.48;100.00;100016.41;4880878;29;20037;-80
2023/10/30 07:52:03;;;;;;;9.77;2.17;;;;;;;9.51;100.00;100005.75;4863464;29;20125;-79
2023/10/30 07:54:28;;;;;;;15.15;2.70;;;;;;;9.61;100.00;100008.97;4880527;29;20353;-80
2023/10/30 07:56:54;;;;;;;11.93;2.40;;;;;;;9.66;100.00;100009.69;4864562;29;20107;-79
2023/10/30 07:59:19;;;;;;;14.15;2.40;;;;;;;9.72;100.00;100006.88;4889425;29;20055;-79
2023/10/30 08:01:45;;;;;;;9.35;2.05;;;;;;;9.77;100.00;100015.53;4863011;29;20111;-80
2023/10/30 08:04:14;;;;;;;19.60;2.88;;;;;;;9.82;100.00;100010.94;4880817;29;20471;-80
2023/10/30 08:06:39;;;;;;;15.68;2.65;;;;;;;9.87;100.00;100003.72;4880161;29;20035;-79
2023/10/30 08:09:05;;;;;;;10.93;2.40;;;;;;;9.95;100.00;100007.91;4860560;29;20609;-79
2023/10/30 08:11:30;;;;;;;10.77;2.38;;;;;;;9.98;100.00;100007.81;4866415;29;20033;-80
2023/10/30 08:13:56;;;;;;;17.23;3.33;;;;;;;10.07;100.00;100010.16;4883268;29;20515;-80
2023/10/30 08:16:22;;;;;;;10.25;2.45;;;;;;;10.15;100.00;100005.47;4896628;29;20059;-79
2023/10/30 08:18:47;;;;;;;18.20;2.58;;;;;;;10.17;100.00;100008.94;4884857;29;20044;-80
2023/10/30 08:21:13;;;;;;;8.95;2.35;;;;;;;10.27;100.00;100015.63;4889238;29;20489;-79
2023/10/30 08:23:39;;;;;;;11.18;2.40;;;;;;;10.33;100.00;100014.59;4852864;29;20049;-80
2023/10/30 08:26:06;;;;;;;9.90;2.25;;;;;;;10.38;100.00;100010.00;4879831;29;20033;-80
2023/10/30 08:28:32;;;;;;;13.82;2.63;;;;;;;10.38;100.00;100004.69;4863341;29;20041;-80
2023/10/30 08:30:57;;;;;;;14.82;2.80;;;;;;;10.39;100.00;100006.44;4862603;29;20052;-80
2023/10/30 08:33:23;;;;;;;14.10;3.05;;;;;;;10.45;100.00;100013.31;4879122;29;20088;-80
2023/10/30 08:35:48;;;;;;;11.20;2.55;;;;;;;10.49;100.00;100007.00;4863105;29;20479;-80
2023/10/30 08:38:14;;;;;;;11.05;2.38;;;;;;;10.54;100.00;100010.34;4879340;29;20078;-80
2023/10/30 08:40:40;;;;;;;16.00;2.53;;;;;;;10.59;100.00;100010.19;4879797;29;20068;-80
2023/10/30 08:43:05;;;;;;;11.88;2.60;;;;;;;10.63;100.00;100015.34;4880912;29;20384;-82
2023/10/30 08:45:31;;;;;;;12.75;2.42;;;;;;;10.64;100.00;100000.31;4861464;29;20049;-82
2023/10/30 08:47:56;;;;;;;12.70;2.60;;;;;;;10.70;100.00;100002.72;4886431;29;20048;-82
2023/10/30 08:50:21;;;;;;;14.27;2.58;;;;;;;10.75;100.00;100001.63;4882950;29;20127;-80
2023/10/30 08:52:47;;;;;;;11.25;2.60;;;;;;;10.81;100.00;99995.25;4878899;29;20045;-79
2023/10/30 08:55:12;;;;;;;10.95;2.00;;;;;;;10.84;100.00;100003.09;4879107;29;20059;-79
2023/10/30 08:57:38;;;;;;;10.35;2.55;;;;;;;10.89;100.00;100017.03;4887619;29;20154;-80
2023/10/30 09:00:07;;;;;;;11.55;2.50;;;;;;;10.93;100.00;100016.00;4888248;29;20037;-80
2023/10/30 09:02:35;;;;;;;11.13;2.60;;;;;;;11.02;100.00;100012.13;4879445;29;20437;-80
2023/10/30 09:05:02;;;;;;;12.40;2.50;;;;;;;11.12;100.00;100013.53;4863163;29;20049;-80
2023/10/30 09:07:27;;;;;;;16.63;2.60;;;;;;;11.23;100.00;100017.59;4892314;29;20120;-80
2023/10/30 09:09:53;;;;;;;14.18;3.47;;;;;;;11.30;100.00;100025.25;4879296;29;20176;-80
2023/10/30 09:12:18;;;;;;;16.25;2.95;;;;;;;11.35;100.00;100030.34;4865147;29;20052;-79
2023/10/30 09:14:44;;;;;;;15.63;2.65;;;;;;;11.39;100.00;100024.88;4890246;29;20155;-80
2023/10/30 09:17:09;;;;;;;14.68;2.70;;;;;;;11.43;100.00;100028.28;4839802;29;20049;-80
2023/10/30 09:19:36;;;;;;;13.20;2.60;;;;;;;11.45;100.00;100023.78;4879033;29;20056;-80
2023/10/30 09:22:01;;;;;;;12.38;2.50;;;;;;;11.49;100.00;100022.72;4878633;29;20076;-80
2023/10/30 09:24:27;;;;;;;10.73;2.47;;;;;;;11.54;100.00;100015.47;4881826;29;20123;-80
2023/10/30 09:26:52;;;;;;;17.52;2.38;;;;;;;11.57;100.00;100010.06;4887171;29;20037;-79
2023/10/30 09:29:18;;;;;;;14.20;2.15;;;;;;;11.62;100.00;100009.84;4874338;29;20112;-79
2023/10/30 09:31:44;;;;;;;14.10;2.33;;;;;;;11.65;100.00;100007.09;4885180;29;20040;-80
2023/10/30 09:34:10;;;;;;;10.38;2.35;;;;;;;11.67;100.00;99999.97;4879088;29;20445;-79
2023/10/30 09:36:36;;;;;;;16.48;2.33;;;;;;;11.72;100.00;100002.41;4882951;29;20079;-79
2023/10/30 09:39:01;;;;;;;11.77;2.88;;;;;;;11.73;100.00;100001.50;4889712;29;20472;-79
2023/10/30 09:41:27;;;;;;;16.20;2.75;;;;;;;11.77;100.00;100008.38;4891450;29;20124;-79
2023/10/30 09:43:54;;;;;;;13.40;3.08;;;;;;;11.80;100.00;100010.94;4878583;29;20504;-79
2023/10/30 09:46:25;;;;;;;12.95;2.30;;;;;;;11.84;100.00;100005.44;4878222;29;20188;-79
2023/10/30 09:48:52;;;;;;;9.50;2.60;;;;;;;11.88;100.00;100003.56;4878631;29;20085;-78
2023/10/30 09:51:20;;;;;;;13.82;2.35;;;;;;;11.92;100.00;99996.31;4878058;29;20044;-79
2023/10/30 09:53:46;;;;;;;13.27;2.33;;;;;;;11.94;100.00;100002.44;4878658;29;20025;-78
2023/10/30 09:56:13;;;;;;;11.20;2.38;;;;;;;11.96;100.00;100003.25;4878902;29;20053;-79
2023/10/30 09:58:38;;;;;;;9.73;2.10;;;;;;;12.00;100.00;99991.59;4861513;29;20044;-79
2023/10/30 10:01:05;;;;;;;11.57;2.10;;;;;;;12.01;100.00;99990.63;4861598;29;20404;-79
2023/10/30 10:03:30;;;;;;;8.05;2.10;;;;;;;12.02;100.00;99982.63;4890117;29;20051;-78
2023/10/30 10:05:57;;;;;;;9.68;2.10;;;;;;;12.05;100.00;99982.50;4872174;29;20041;-79
2023/10/30 10:08:23;;;;;;;13.23;2.13;;;;;;;12.06;100.00;99975.38;4861603;29;20051;-79
2023/10/30 10:11:02;;;;;;;11.02;2.38;;;;;;;12.06;100.00;99978.03;4878061;29;20124;-79
2023/10/30 10:13:29;;;;;;;12.50;2.45;;;;;;;12.07;100.00;99976.25;4878176;29;20065;-79
2023/10/30 10:15:55;;;;;;;11.05;1.90;;;;;;;12.07;100.00;99979.78;4888490;29;20049;-79
2023/10/30 10:18:31;;;;;;;12.13;2.15;;;;;;;12.08;100.00;99981.50;4882976;29;20374;-79
2023/10/30 10:21:08;;;;;;;13.10;2.00;;;;;;;12.11;100.00;99977.84;4878003;29;20378;-79
2023/10/30 10:23:35;;;;;;;7.53;2.35;;;;;;;12.10;100.00;99970.84;4860782;29;20041;-79
2023/10/30 10:26:14;;;;;;;11.40;2.20;;;;;;;12.14;100.00;99968.00;4877898;29;20493;-79
2023/10/30 10:28:44;;;;;;;12.80;2.58;;;;;;;12.18;100.00;99984.63;4861037;29;20044;-79
2023/10/30 10:31:09;;;;;;;9.18;2.28;;;;;;;12.19;100.00;99968.66;4863505;29;20045;-79
2023/10/30 10:33:35;;;;;;;11.95;2.35;;;;;;;12.21;100.00;99977.41;4882077;29;20099;-79
2023/10/30 10:36:03;;;;;;;8.57;1.80;;;;;;;12.22;100.00;99963.22;4886880;29;20041;-79
2023/10/30 10:38:29;;;;;;;15.23;2.22;;;;;;;12.29;100.00;99971.78;4890849;29;20054;-79
2023/10/30 10:40:55;;;;;;;11.75;2.25;;;;;;;12.30;100.00;99973.50;4875847;29;20064;-79
2023/10/30 10:43:23;;;;;;;10.52;2.15;;;;;;;12.35;100.00;99968.00;4896750;29;20074;-79
2023/10/30 10:45:51;;;;;;;11.10;2.22;;;;;;;12.41;100.00;99975.69;4882187;29;20508;-79
2023/10/30 10:48:18;;;;;;;10.13;2.03;;;;;;;12.45;100.00;99964.00;4880395;29;20033;-79
2023/10/30 10:50:44;;;;;;;11.27;2.47;;;;;;;12.48;100.00;99958.56;4878149;29;20025;-79
2023/10/30 10:53:11;;;;;;;8.30;2.00;;;;;;;12.52;100.00;99968.13;4882592;29;20449;-79
2023/10/30 10:55:45;;;;;;;8.45;1.90;;;;;;;12.56;100.00;99971.50;4888678;29;20037;-80
2023/10/30 10:58:18;;;;;;;15.82;1.98;;;;;;;12.57;100.00;99962.63;4884883;29;20033;-79
2023/10/30 11:00:49;;;;;;;8.35;1.80;;;;;;;12.61;100.00;99967.72;4886428;29;20113;-80
2023/10/30 11:03:15;;;;;;;;;;;;;;;12.66;100.00;99965.72;4879349;29;20040;-81
2023/10/30 11:05:42;;;;;;;4.88;1.58;;;;;;;12.64;100.00;99961.41;4892142;29;20047;-82
2023/10/30 11:08:38;;;;;;;9.82;2.45;;;;;;;12.66;100.00;99963.06;4876885;29;20060;-82
2023/10/30 11:11:35;;;;;;;9.38;2.50;;;;;;;12.66;100.00;99948.91;4861035;29;20409;-82
2023/10/30 11:14:43;;;;;;;10.60;2.60;;;;;;;12.60;100.00;99954.50;4854407;29;20094;-81
2023/10/30 11:17:09;;;;;;;12.25;2.88;;;;;;;12.55;100.00;99954.69;4875973;29;20067;-81
2023/10/30 11:19:38;;;;;;;9.50;2.63;;;;;;;12.55;100.00;99941.44;4878034;29;20425;-81